• Join FlightAware (Why Join?)
  • Login
  • US Flag 
10:40PM EDT


 

Airport Tracker/Info


-or-


 

Live Flight TrackerFlight Track Log ✈ N724HS ✈ 11-Jun-2014 ✈ KFLL - KORL

Flight Track Log - Related Links

Times and Time Zones

All times are in EDT time to prevent confusion due to time zone crossing. See the N724HS flight status page for this flight to view local times or setup timezone preferences in your user account.

Time Position Orientation Groundspeed Altitude Reporting Facility
EDT Latitude Longitude Course Direction KTS MPH feet Rate Location/Type
08:24AM 26.0800 -80.1336 53° Northeast 139 160 600  Level Miami Center
08:26AM 26.1150 -80.0811 53° Northeast 178 205 2,300 1,500 Climbing Miami Center
08:27AM 26.1519 -80.0881 350° North 168 193 4,200 1,740 Climbing Miami Center
08:27AM 26.1594 -80.1050 296° West 179 206 4,500 720 Climbing Miami Center
08:28AM 26.1756 -80.1456 294° West 212 244 4,900 600 Climbing Miami Center
08:29AM 26.2100 -80.1917 310° West 217 250 5,700 1,140 Climbing Miami Center
08:30AM 26.2656 -80.2219 334° Northwest 192 221 7,400 1,440 Climbing Miami Center
08:31AM 26.3136 -80.2519 331° Northwest 183 211 8,700 1,200 Climbing Miami Center
08:32AM 26.3592 -80.2806 331° Northwest 187 215 9,900 1,020 Climbing Miami Center
08:33AM 26.4044 -80.3086 331° Northwest 187 215 10,900 960 Climbing Miami Center
08:34AM 26.4544 -80.3406 330° Northwest 190 219 12,000 1,020 Climbing Miami Center
08:35AM 26.5014 -80.3703 330° Northwest 191 220 13,100 900 Climbing Miami Center
08:36AM 26.5522 -80.4022 331° Northwest 204 235 13,900 420 Climbing Miami Center
08:37AM 26.6153 -80.4361 334° Northwest 239 275 14,000  Climbing Miami Center
08:38AM 26.6797 -80.4683 336° Northwest 251 289 14,000  Level Miami Center
08:39AM 26.7439 -80.5017 335° Northwest 254 292 14,000  Level Miami Center
08:40AM 26.8117 -80.5344 337° Northwest 257 296 14,000  Level Miami Center
08:41AM 26.8800 -80.5694 335° Northwest 257 296 14,000  Level Miami Center
08:42AM 26.9486 -80.6042 336° Northwest 254 292 14,000  Level Miami Center
08:43AM 27.0169 -80.6386 336° Northwest 256 295 14,000 -300 Level Miami Center
08:44AM 27.0811 -80.6711 336° Northwest 259 298 13,500 -540 Descending Miami Center
08:45AM 27.1547 -80.7089 335° Northwest 276 318 13,000 -300 Descending Miami Center
08:46AM 27.2244 -80.7444 336° Northwest 267 307 13,000  Level Miami Center
08:47AM 27.2931 -80.7794 336° Northwest 263 303 13,000  Level Miami Center
08:48AM 27.3567 -80.8119 336° Northwest 260 299 13,000  Level Miami Center
08:49AM 27.4256 -80.8469 336° Northwest 259 298 13,000  Level Miami Center
08:50AM 27.4950 -80.8836 335° Northwest 260 299 13,000 -120 Level Miami Center
08:51AM 27.5606 -80.9158 336° Northwest 261 300 12,800 -360 Descending Miami Center
08:52AM 27.6328 -80.9528 336° Northwest 268 308 12,300 -540 Descending Miami Center
08:53AM 27.7050 -80.9897 336° Northwest 270 311 11,800 -480 Descending Miami Center
08:55AM 27.8050 -81.0414 335° Northwest 271 312 11,200 -480 Descending Miami Center
08:56AM 27.8767 -81.0781 336° Northwest 271 312 10,700 -540 Descending Miami Center
08:57AM 27.9381 -81.1100 335° Northwest 271 312 10,200 -360 Descending Miami Center
08:58AM 28.0100 -81.1353 343° North 270 311 10,000 -120 Descending Miami Center
08:59AM 28.0797 -81.1589 343° North 264 304 10,000 -240 Level Miami Center
09:00AM 28.1333 -81.1667 353° North 271 312 9,700 -900 Descending Orlando TRACON
09:01AM 28.2000 -81.1167 33° Northeast 277 319 8,600 -1,140 Descending Orlando TRACON
09:02AM 28.2667 -81.0667 33° Northeast 271 312 7,300 -1,380 Descending Orlando TRACON
09:02AM 28.3000 -81.0333 41° Northeast 265 305 6,300 -1,500 Descending Orlando TRACON
09:03AM 28.3667 -81.0000 24° Northeast 247 284 4,800 -1,440 Descending Orlando TRACON
09:04AM 28.4333 -81.0000 360° North 230 265 3,300 -900 Descending Orlando TRACON
09:05AM 28.4833 -81.0333 330° Northwest 192 221 3,000 -840 Descending Orlando TRACON
09:06AM 28.5167 -81.0833 307° West 175 201 1,700 -840 Descending Orlando TRACON
09:07AM 28.5333 -81.1333 291° West 183 211 1,500 -120 Descending Orlando TRACON
09:09AM 28.5667 -81.1833 307° West 174 200 1,500  Level Orlando TRACON
09:10AM 28.5833 -81.2333 291° West 120 138 1,600 -120 Climbing Orlando TRACON
09:11AM 28.5667 -81.2500 221° Southwest 106 122 1,300 -480 Descending Orlando TRACON
09:12AM 28.5667 -81.2833 270° West 114 131 700 -600 Descending Orlando TRACON
09:14AM 28.5333 -81.3167 213° Southwest  Level FlightAware Approximate
09:21AM 28.5455 -81.3329 213° Southwest  Level Estimated
09:22AM 28.5455 -81.3329 130° Southeast  Level Estimated